AKU321 NZCH-YBBN
Flight info
| Callsign | AKU321 |
|---|---|
| Flight time | 3h 29m |
| Altitude | 40000 |
| Route | KABKA L503 SAVER G329 UGTUG |
| Aircraft | B77L/H-SDE1E2E3FGHIJ2J3J4J5M1RWXY/LB1D1 |
Departure
| Time | 2026-05-05 06:43 |
|---|---|
| Airport | Christchurch International Airport (NZCH) |
Arrival
| Time | 2026-05-05 10:13 |
|---|---|
| Airport | Brisbane International Airport (YBBN) |
| Time | Latitude | Longitude | Altitude | Speed | Heading |
|---|---|---|---|---|---|
| 2026-05-05 06:16 | -43.48623 | 172.54073 | 110 ft | 0 kts | 207° |
| 2026-05-05 06:34 | -43.48611 | 172.54080 | 110 ft | 2 kts | 200° |
| 2026-05-05 06:35 | -43.48596 | 172.54088 | 112 ft | 2 kts | 197° |
| 2026-05-05 06:35 | -43.48580 | 172.54094 | 111 ft | 2 kts | 187° |
| 2026-05-05 06:35 | -43.48563 | 172.54095 | 110 ft | 2 kts | 203° |
| 2026-05-05 06:35 | -43.48552 | 172.54111 | 110 ft | 2 kts | 262° |
| 2026-05-05 06:36 | -43.48553 | 172.54134 | 109 ft | 2 kts | 289° |
| 2026-05-05 06:36 | -43.48559 | 172.54155 | 110 ft | 2 kts | 302° |
| 2026-05-05 06:36 | -43.48565 | 172.54166 | 109 ft | 1 kts | 309° |
| 2026-05-05 06:38 | -43.48564 | 172.54165 | 109 ft | 0 kts | 309° |
| 2026-05-05 06:38 | -43.48515 | 172.54056 | 112 ft | 19 kts | 278° |
| 2026-05-05 06:38 | -43.48582 | 172.53906 | 111 ft | 19 kts | 221° |
| 2026-05-05 06:39 | -43.48672 | 172.53803 | 111 ft | 0 kts | 220° |
| 2026-05-05 06:39 | -43.48673 | 172.53801 | 111 ft | 0 kts | 220° |
| 2026-05-05 06:39 | -43.48677 | 172.53798 | 112 ft | 4 kts | 213° |
| 2026-05-05 06:39 | -43.48751 | 172.53728 | 110 ft | 16 kts | 225° |
| 2026-05-05 06:40 | -43.48834 | 172.53617 | 112 ft | 17 kts | 222° |
| 2026-05-05 06:40 | -43.48929 | 172.53518 | 111 ft | 17 kts | 219° |
| 2026-05-05 06:40 | -43.49021 | 172.53412 | 112 ft | 18 kts | 221° |
| 2026-05-05 06:40 | -43.49121 | 172.53297 | 114 ft | 19 kts | 221° |
| 2026-05-05 06:41 | -43.49222 | 172.53181 | 117 ft | 19 kts | 220° |
| 2026-05-05 06:41 | -43.49324 | 172.53063 | 122 ft | 22 kts | 220° |
| 2026-05-05 06:41 | -43.49458 | 172.52908 | 126 ft | 26 kts | 220° |
| 2026-05-05 06:41 | -43.49595 | 172.52750 | 129 ft | 26 kts | 220° |
| 2026-05-05 06:42 | -43.49724 | 172.52602 | 132 ft | 23 kts | 220° |
| 2026-05-05 06:42 | -43.49794 | 172.52459 | 132 ft | 17 kts | 268° |
| 2026-05-05 06:42 | -43.49787 | 172.52311 | 123 ft | 14 kts | 275° |
| 2026-05-05 06:42 | -43.49721 | 172.52265 | 125 ft | 15 kts | 27° |
| 2026-05-05 06:43 | -43.49497 | 172.52520 | 125 ft | 92 kts | 39° |
| 2026-05-05 06:43 | -43.48721 | 172.53411 | 392 ft | 178 kts | 40° |
| 2026-05-05 06:43 | -43.47780 | 172.54489 | 1995 ft | 178 kts | 37° |
| 2026-05-05 06:43 | -43.46729 | 172.55608 | 3195 ft | 208 kts | 32° |
| 2026-05-05 06:44 | -43.45337 | 172.56563 | 3656 ft | 242 kts | 20° |
| 2026-05-05 06:44 | -43.44276 | 172.57153 | 4185 ft | 252 kts | 20° |
| 2026-05-05 06:44 | -43.42627 | 172.58111 | 5266 ft | 262 kts | 21° |
| 2026-05-05 06:44 | -43.40949 | 172.59144 | 6465 ft | 265 kts | 22° |
| 2026-05-05 06:45 | -43.39265 | 172.60211 | 7664 ft | 267 kts | 23° |
| 2026-05-05 06:45 | -43.37554 | 172.61233 | 8768 ft | 268 kts | 14° |
| 2026-05-05 06:45 | -43.35688 | 172.61329 | 9767 ft | 274 kts | 346° |
| 2026-05-05 06:45 | -43.33952 | 172.60209 | 10744 ft | 286 kts | 323° |
| 2026-05-05 06:46 | -43.32574 | 172.58060 | 11124 ft | 320 kts | 302° |
| 2026-05-05 06:46 | -43.31683 | 172.55101 | 11626 ft | 345 kts | 289° |
| 2026-05-05 06:46 | -43.31031 | 172.51878 | 12631 ft | 355 kts | 287° |
| 2026-05-05 06:46 | -43.30415 | 172.48582 | 13766 ft | 358 kts | 287° |
| 2026-05-05 06:47 | -43.29773 | 172.45258 | 14852 ft | 363 kts | 287° |
| 2026-05-05 06:47 | -43.29084 | 172.41887 | 15776 ft | 370 kts | 288° |
| 2026-05-05 06:47 | -43.28358 | 172.38462 | 16689 ft | 377 kts | 289° |
| 2026-05-05 06:47 | -43.27594 | 172.34984 | 17580 ft | 381 kts | 292° |
| 2026-05-05 06:48 | -43.26346 | 172.31773 | 18313 ft | 381 kts | 309° |
| 2026-05-05 06:48 | -43.24678 | 172.28886 | 18999 ft | 391 kts | 311° |
| 2026-05-05 06:48 | -43.22988 | 172.26001 | 19844 ft | 395 kts | 311° |
| 2026-05-05 06:48 | -43.21268 | 172.23045 | 20693 ft | 399 kts | 310° |
| 2026-05-05 06:49 | -43.19536 | 172.20045 | 21541 ft | 404 kts | 310° |
| 2026-05-05 06:49 | -43.17788 | 172.16992 | 22313 ft | 410 kts | 310° |
| 2026-05-05 06:49 | -43.16019 | 172.13890 | 23088 ft | 416 kts | 309° |
| 2026-05-05 06:49 | -43.14226 | 172.10738 | 23886 ft | 422 kts | 309° |
| 2026-05-05 06:50 | -43.12415 | 172.07551 | 24566 ft | 427 kts | 309° |
| 2026-05-05 06:50 | -43.10583 | 172.04330 | 25274 ft | 430 kts | 309° |
| 2026-05-05 06:50 | -43.08735 | 172.01083 | 25966 ft | 435 kts | 309° |
| 2026-05-05 06:50 | -43.06867 | 171.97804 | 26634 ft | 439 kts | 309° |
| 2026-05-05 06:51 | -43.04972 | 171.94483 | 27244 ft | 445 kts | 309° |
| 2026-05-05 06:51 | -43.03062 | 171.91141 | 27899 ft | 449 kts | 308° |
| 2026-05-05 06:51 | -43.01125 | 171.87754 | 28539 ft | 454 kts | 308° |
| 2026-05-05 06:51 | -42.99175 | 171.84349 | 29194 ft | 457 kts | 308° |
| 2026-05-05 06:52 | -42.97203 | 171.80909 | 29830 ft | 462 kts | 308° |
| 2026-05-05 06:52 | -42.95216 | 171.77446 | 30428 ft | 466 kts | 308° |
| 2026-05-05 06:52 | -42.93202 | 171.73940 | 30907 ft | 471 kts | 308° |
| 2026-05-05 06:52 | -42.91168 | 171.70404 | 31360 ft | 475 kts | 308° |
| 2026-05-05 06:53 | -42.89148 | 171.66896 | 31802 ft | 478 kts | 308° |
| 2026-05-05 06:53 | -42.87053 | 171.63277 | 32236 ft | 482 kts | 309° |
| 2026-05-05 06:53 | -42.84859 | 171.59891 | 32722 ft | 483 kts | 313° |
| 2026-05-05 06:53 | -42.82504 | 171.56634 | 33310 ft | 482 kts | 315° |
| 2026-05-05 06:54 | -42.80093 | 171.53454 | 33913 ft | 481 kts | 315° |
| 2026-05-05 06:54 | -42.77683 | 171.50304 | 34489 ft | 480 kts | 315° |
| 2026-05-05 06:54 | -42.75279 | 171.47140 | 34969 ft | 479 kts | 315° |
| 2026-05-05 06:54 | -42.72906 | 171.43980 | 35516 ft | 476 kts | 315° |
| 2026-05-05 06:55 | -42.70557 | 171.40821 | 36055 ft | 474 kts | 314° |
| 2026-05-05 06:55 | -42.68228 | 171.37669 | 36564 ft | 471 kts | 314° |
| 2026-05-05 06:55 | -42.65911 | 171.34523 | 37051 ft | 470 kts | 314° |
| 2026-05-05 06:55 | -42.63603 | 171.31388 | 37503 ft | 468 kts | 314° |
| 2026-05-05 06:56 | -42.61303 | 171.28268 | 37965 ft | 467 kts | 314° |
| 2026-05-05 06:56 | -42.59008 | 171.25158 | 38426 ft | 465 kts | 314° |
| 2026-05-05 06:56 | -42.56722 | 171.22066 | 38877 ft | 463 kts | 314° |
| 2026-05-05 06:56 | -42.54442 | 171.18987 | 39272 ft | 462 kts | 314° |
| 2026-05-05 06:57 | -42.52166 | 171.15916 | 39567 ft | 462 kts | 314° |
| 2026-05-05 06:57 | -42.49883 | 171.12841 | 39830 ft | 463 kts | 314° |
| 2026-05-05 06:57 | -42.47597 | 171.09766 | 40067 ft | 463 kts | 314° |
| 2026-05-05 06:57 | -42.45315 | 171.06698 | 40343 ft | 463 kts | 314° |
| 2026-05-05 06:58 | -42.43017 | 171.03613 | 40411 ft | 467 kts | 314° |
| 2026-05-05 06:58 | -42.38395 | 170.97416 | 40465 ft | 467 kts | 314° |
| 2026-05-05 06:59 | -42.33795 | 170.91265 | 40458 ft | 462 kts | 314° |
| 2026-05-05 06:59 | -42.29238 | 170.85185 | 40463 ft | 459 kts | 314° |
| 2026-05-05 07:00 | -42.24700 | 170.79142 | 40466 ft | 458 kts | 314° |
| 2026-05-05 07:00 | -42.20184 | 170.73140 | 40465 ft | 458 kts | 314° |
| 2026-05-05 07:01 | -42.15638 | 170.67111 | 40466 ft | 459 kts | 314° |
| 2026-05-05 07:01 | -42.11086 | 170.61088 | 40465 ft | 459 kts | 314° |
| 2026-05-05 07:02 | -42.06515 | 170.55051 | 40462 ft | 460 kts | 314° |
| 2026-05-05 07:02 | -42.01933 | 170.49015 | 40455 ft | 461 kts | 314° |
| 2026-05-05 07:03 | -41.97340 | 170.42976 | 40458 ft | 462 kts | 314° |
| 2026-05-05 07:03 | -41.92742 | 170.36942 | 40461 ft | 463 kts | 315° |
| 2026-05-05 07:04 | -41.88128 | 170.30900 | 40450 ft | 463 kts | 315° |
| 2026-05-05 07:04 | -41.83998 | 170.25504 | 40455 ft | 463 kts | 315° |
| 2026-05-05 07:05 | -41.79395 | 170.19501 | 40451 ft | 463 kts | 315° |
| 2026-05-05 07:05 | -41.75521 | 170.14457 | 40443 ft | 463 kts | 315° |
| 2026-05-05 07:06 | -41.71809 | 170.09633 | 40448 ft | 463 kts | 315° |
| 2026-05-05 07:06 | -41.67340 | 170.03505 | 40438 ft | 462 kts | 312° |
| 2026-05-05 07:07 | -41.62997 | 169.97171 | 40440 ft | 462 kts | 311° |
| 2026-05-05 07:07 | -41.58654 | 169.90850 | 40440 ft | 461 kts | 312° |
| 2026-05-05 07:08 | -41.54286 | 169.84569 | 40438 ft | 461 kts | 312° |
| 2026-05-05 07:08 | -41.49947 | 169.78377 | 40436 ft | 461 kts | 312° |
| 2026-05-05 07:09 | -41.45565 | 169.72143 | 40442 ft | 460 kts | 312° |
| 2026-05-05 07:09 | -41.41181 | 169.65919 | 40434 ft | 460 kts | 312° |
| 2026-05-05 07:10 | -41.36791 | 169.59698 | 40422 ft | 460 kts | 312° |
| 2026-05-05 07:10 | -41.32407 | 169.53496 | 40429 ft | 460 kts | 312° |
| 2026-05-05 07:11 | -41.28020 | 169.47304 | 40423 ft | 460 kts | 312° |
| 2026-05-05 07:11 | -41.23660 | 169.41163 | 40428 ft | 459 kts | 312° |
| 2026-05-05 07:12 | -41.19271 | 169.34994 | 40429 ft | 459 kts | 312° |
| 2026-05-05 07:12 | -41.14873 | 169.28825 | 40420 ft | 459 kts | 312° |
| 2026-05-05 07:13 | -41.10475 | 169.22668 | 40422 ft | 459 kts | 312° |
| 2026-05-05 07:13 | -41.06076 | 169.16525 | 40420 ft | 460 kts | 312° |
| 2026-05-05 07:14 | -41.01670 | 169.10384 | 40418 ft | 460 kts | 312° |
| 2026-05-05 07:14 | -40.97262 | 169.04251 | 40414 ft | 460 kts | 312° |
| 2026-05-05 07:15 | -40.92849 | 168.98126 | 40411 ft | 460 kts | 312° |
| 2026-05-05 07:15 | -40.88434 | 168.92010 | 40410 ft | 460 kts | 312° |
| 2026-05-05 07:16 | -40.84010 | 168.85895 | 40409 ft | 460 kts | 312° |
| 2026-05-05 07:16 | -40.79617 | 168.79833 | 40408 ft | 460 kts | 312° |
| 2026-05-05 07:17 | -40.75194 | 168.73744 | 40404 ft | 460 kts | 312° |
| 2026-05-05 07:17 | -40.70765 | 168.67660 | 40400 ft | 460 kts | 312° |
| 2026-05-05 07:18 | -40.66335 | 168.61585 | 40401 ft | 460 kts | 312° |
| 2026-05-05 07:18 | -40.61901 | 168.55518 | 40397 ft | 460 kts | 312° |
| 2026-05-05 07:19 | -40.57463 | 168.49458 | 40396 ft | 460 kts | 312° |
| 2026-05-05 07:19 | -40.53027 | 168.43412 | 40394 ft | 460 kts | 312° |
| 2026-05-05 07:20 | -40.48580 | 168.37365 | 40394 ft | 459 kts | 312° |
| 2026-05-05 07:20 | -40.44135 | 168.31332 | 40388 ft | 459 kts | 312° |
| 2026-05-05 07:21 | -40.39685 | 168.25306 | 40383 ft | 459 kts | 312° |
| 2026-05-05 07:21 | -40.35235 | 168.19290 | 40383 ft | 459 kts | 313° |
| 2026-05-05 07:22 | -40.30781 | 168.13282 | 40382 ft | 459 kts | 313° |
| 2026-05-05 07:22 | -40.26349 | 168.07315 | 40379 ft | 459 kts | 313° |
| 2026-05-05 07:23 | -40.21884 | 168.01316 | 40379 ft | 459 kts | 313° |
| 2026-05-05 07:23 | -40.17424 | 167.95335 | 40374 ft | 459 kts | 313° |
| 2026-05-05 07:24 | -40.12954 | 167.89354 | 40375 ft | 459 kts | 313° |
| 2026-05-05 07:24 | -40.08484 | 167.83385 | 40371 ft | 459 kts | 313° |
| 2026-05-05 07:25 | -40.04012 | 167.77423 | 40371 ft | 459 kts | 313° |
| 2026-05-05 07:25 | -39.99538 | 167.71472 | 40367 ft | 459 kts | 313° |
| 2026-05-05 07:26 | -39.95092 | 167.65569 | 40366 ft | 459 kts | 313° |
| 2026-05-05 07:26 | -39.90611 | 167.59633 | 40358 ft | 459 kts | 313° |
| 2026-05-05 07:27 | -39.86126 | 167.53703 | 40359 ft | 459 kts | 313° |
| 2026-05-05 07:27 | -39.81649 | 167.47794 | 40365 ft | 459 kts | 313° |
| 2026-05-05 07:28 | -39.77164 | 167.41887 | 40362 ft | 459 kts | 313° |
| 2026-05-05 07:28 | -39.72678 | 167.35991 | 40350 ft | 458 kts | 313° |
| 2026-05-05 07:29 | -39.68191 | 167.30103 | 40354 ft | 458 kts | 313° |
| 2026-05-05 07:29 | -39.63705 | 167.24229 | 40361 ft | 458 kts | 313° |
| 2026-05-05 07:30 | -39.59218 | 167.18366 | 40355 ft | 458 kts | 313° |
| 2026-05-05 07:30 | -39.53236 | 167.10567 | 40351 ft | 458 kts | 313° |
| 2026-05-05 07:31 | -39.48749 | 167.04730 | 40351 ft | 457 kts | 313° |
| 2026-05-05 07:31 | -39.44256 | 166.98896 | 40339 ft | 457 kts | 313° |
| 2026-05-05 07:32 | -39.39760 | 166.93071 | 40348 ft | 457 kts | 313° |
| 2026-05-05 07:32 | -39.35267 | 166.87260 | 40348 ft | 457 kts | 313° |
| 2026-05-05 07:33 | -39.30777 | 166.81464 | 40334 ft | 456 kts | 313° |
| 2026-05-05 07:33 | -39.26452 | 166.75891 | 40337 ft | 456 kts | 313° |
| 2026-05-05 07:34 | -39.21955 | 166.70108 | 40333 ft | 456 kts | 313° |
| 2026-05-05 07:34 | -39.17462 | 166.64342 | 40335 ft | 456 kts | 313° |
| 2026-05-05 07:35 | -39.12967 | 166.58583 | 40332 ft | 455 kts | 313° |
| 2026-05-05 07:35 | -39.08477 | 166.52842 | 40336 ft | 455 kts | 313° |
| 2026-05-05 07:36 | -39.03983 | 166.47107 | 40333 ft | 455 kts | 313° |
| 2026-05-05 07:36 | -38.99684 | 166.41630 | 40327 ft | 455 kts | 313° |
| 2026-05-05 07:37 | -38.95183 | 166.35908 | 40323 ft | 455 kts | 313° |
| 2026-05-05 07:37 | -38.90687 | 166.30202 | 40317 ft | 454 kts | 313° |
| 2026-05-05 07:38 | -38.86484 | 166.24877 | 40321 ft | 454 kts | 313° |
| 2026-05-05 07:38 | -38.83019 | 166.20495 | 40319 ft | 454 kts | 313° |
| 2026-05-05 07:39 | -38.78515 | 166.14808 | 40315 ft | 454 kts | 313° |
| 2026-05-05 07:39 | -38.74007 | 166.09126 | 40314 ft | 454 kts | 313° |
| 2026-05-05 07:40 | -38.69501 | 166.03458 | 40313 ft | 454 kts | 313° |
| 2026-05-05 07:40 | -38.65002 | 165.97809 | 40313 ft | 454 kts | 313° |
| 2026-05-05 07:41 | -38.60487 | 165.92151 | 40309 ft | 454 kts | 313° |
| 2026-05-05 07:41 | -38.55976 | 165.86508 | 40306 ft | 454 kts | 313° |
| 2026-05-05 07:42 | -38.51459 | 165.80869 | 40304 ft | 453 kts | 313° |
| 2026-05-05 07:42 | -38.46946 | 165.75243 | 40305 ft | 453 kts | 313° |
| 2026-05-05 07:43 | -38.42466 | 165.69670 | 40301 ft | 453 kts | 313° |
| 2026-05-05 07:43 | -38.37952 | 165.64064 | 40304 ft | 453 kts | 313° |
| 2026-05-05 07:44 | -38.33436 | 165.58467 | 40301 ft | 453 kts | 313° |
| 2026-05-05 07:44 | -38.28918 | 165.52879 | 40303 ft | 452 kts | 313° |
| 2026-05-05 07:45 | -38.24400 | 165.47299 | 40299 ft | 452 kts | 313° |
| 2026-05-05 07:45 | -38.19890 | 165.41739 | 40293 ft | 452 kts | 313° |
| 2026-05-05 07:46 | -38.15375 | 165.36184 | 40294 ft | 451 kts | 313° |
| 2026-05-05 07:46 | -38.10866 | 165.30646 | 40291 ft | 451 kts | 313° |
| 2026-05-05 07:47 | -38.06358 | 165.25120 | 40290 ft | 450 kts | 313° |
| 2026-05-05 07:47 | -38.01878 | 165.19638 | 40288 ft | 450 kts | 313° |
| 2026-05-05 07:48 | -37.97368 | 165.14129 | 40291 ft | 449 kts | 314° |
| 2026-05-05 07:48 | -37.92866 | 165.08639 | 40286 ft | 449 kts | 314° |
| 2026-05-05 07:49 | -37.88363 | 165.03158 | 40284 ft | 449 kts | 314° |
| 2026-05-05 07:49 | -37.83862 | 164.97689 | 40279 ft | 448 kts | 314° |
| 2026-05-05 07:50 | -37.79361 | 164.92230 | 40279 ft | 448 kts | 314° |
| 2026-05-05 07:50 | -37.74853 | 164.86772 | 40277 ft | 448 kts | 314° |
| 2026-05-05 07:51 | -37.70351 | 164.81331 | 40276 ft | 448 kts | 314° |
| 2026-05-05 07:51 | -37.65899 | 164.75959 | 40277 ft | 448 kts | 314° |
| 2026-05-05 07:52 | -37.61363 | 164.70497 | 40268 ft | 448 kts | 314° |
| 2026-05-05 07:52 | -37.56855 | 164.65078 | 40273 ft | 448 kts | 314° |
| 2026-05-05 07:53 | -37.52340 | 164.59660 | 40265 ft | 448 kts | 313° |
| 2026-05-05 07:53 | -37.47827 | 164.54253 | 40262 ft | 448 kts | 313° |
| 2026-05-05 07:54 | -37.43309 | 164.48850 | 40259 ft | 447 kts | 313° |
| 2026-05-05 07:54 | -37.38795 | 164.43462 | 40261 ft | 447 kts | 313° |
| 2026-05-05 07:55 | -37.34274 | 164.38075 | 40261 ft | 447 kts | 313° |
| 2026-05-05 07:55 | -37.29762 | 164.32706 | 40255 ft | 446 kts | 313° |
| 2026-05-05 07:56 | -37.25257 | 164.27357 | 40247 ft | 446 kts | 313° |
| 2026-05-05 07:56 | -37.20774 | 164.22042 | 40249 ft | 445 kts | 313° |
| 2026-05-05 07:57 | -37.16269 | 164.16711 | 40260 ft | 445 kts | 313° |
| 2026-05-05 07:57 | -37.11772 | 164.11397 | 40256 ft | 444 kts | 313° |
| 2026-05-05 07:58 | -37.07274 | 164.06092 | 40246 ft | 444 kts | 313° |
| 2026-05-05 07:58 | -37.02775 | 164.00796 | 40252 ft | 443 kts | 313° |
| 2026-05-05 07:59 | -36.98286 | 163.95520 | 40247 ft | 442 kts | 313° |
| 2026-05-05 07:59 | -36.93800 | 163.90256 | 40246 ft | 442 kts | 313° |
| 2026-05-05 08:00 | -36.89314 | 163.85001 | 40240 ft | 441 kts | 313° |
| 2026-05-05 08:00 | -36.84835 | 163.79762 | 40238 ft | 441 kts | 313° |
| 2026-05-05 08:01 | -36.80384 | 163.74566 | 40234 ft | 441 kts | 313° |
| 2026-05-05 08:01 | -36.75906 | 163.69346 | 40238 ft | 440 kts | 313° |
| 2026-05-05 08:02 | -36.71425 | 163.64133 | 40234 ft | 440 kts | 313° |
| 2026-05-05 08:02 | -36.66947 | 163.58931 | 40232 ft | 440 kts | 313° |
| 2026-05-05 08:03 | -36.62467 | 163.53736 | 40235 ft | 440 kts | 313° |
| 2026-05-05 08:03 | -36.57989 | 163.48551 | 40234 ft | 440 kts | 313° |
| 2026-05-05 08:04 | -36.53513 | 163.43377 | 40224 ft | 439 kts | 313° |
| 2026-05-05 08:04 | -36.49034 | 163.38209 | 40224 ft | 439 kts | 313° |
| 2026-05-05 08:05 | -36.44553 | 163.33046 | 40223 ft | 439 kts | 313° |
| 2026-05-05 08:05 | -36.40071 | 163.27891 | 40218 ft | 439 kts | 313° |
| 2026-05-05 08:06 | -36.35590 | 163.22746 | 40221 ft | 439 kts | 313° |
| 2026-05-05 08:06 | -36.31135 | 163.17638 | 40216 ft | 438 kts | 313° |
| 2026-05-05 08:07 | -36.26654 | 163.12509 | 40214 ft | 438 kts | 313° |
| 2026-05-05 08:07 | -36.22175 | 163.07389 | 40216 ft | 438 kts | 313° |
| 2026-05-05 08:08 | -36.17700 | 163.02282 | 40215 ft | 437 kts | 313° |
| 2026-05-05 08:08 | -36.13252 | 162.97163 | 40217 ft | 436 kts | 311° |
| 2026-05-05 08:09 | -36.08873 | 162.91969 | 40210 ft | 435 kts | 311° |
| 2026-05-05 08:09 | -36.04520 | 162.86790 | 40212 ft | 434 kts | 311° |
| 2026-05-05 08:10 | -36.00162 | 162.81628 | 40206 ft | 434 kts | 311° |
| 2026-05-05 08:10 | -35.95802 | 162.76484 | 40205 ft | 433 kts | 311° |
| 2026-05-05 08:11 | -35.91478 | 162.71394 | 40204 ft | 432 kts | 311° |
| 2026-05-05 08:11 | -35.87130 | 162.66285 | 40204 ft | 431 kts | 311° |
| 2026-05-05 08:12 | -35.82789 | 162.61191 | 40200 ft | 430 kts | 311° |
| 2026-05-05 08:12 | -35.78456 | 162.56115 | 40196 ft | 429 kts | 311° |
| 2026-05-05 08:13 | -35.74124 | 162.51048 | 40196 ft | 429 kts | 311° |
| 2026-05-05 08:13 | -35.69802 | 162.46001 | 40190 ft | 428 kts | 311° |
| 2026-05-05 08:14 | -35.65489 | 162.40971 | 40192 ft | 427 kts | 311° |
| 2026-05-05 08:14 | -35.61178 | 162.35953 | 40191 ft | 426 kts | 311° |
| 2026-05-05 08:15 | -35.56873 | 162.30948 | 40190 ft | 426 kts | 311° |
| 2026-05-05 08:15 | -35.52572 | 162.25956 | 40192 ft | 425 kts | 311° |
| 2026-05-05 08:16 | -35.48277 | 162.20979 | 40187 ft | 424 kts | 311° |
| 2026-05-05 08:16 | -35.43986 | 162.16014 | 40183 ft | 424 kts | 311° |
| 2026-05-05 08:17 | -35.39729 | 162.11096 | 40185 ft | 423 kts | 311° |
| 2026-05-05 08:17 | -35.35440 | 162.06148 | 40182 ft | 423 kts | 311° |
| 2026-05-05 08:18 | -35.31155 | 162.01213 | 40182 ft | 422 kts | 311° |
| 2026-05-05 08:18 | -35.26873 | 161.96290 | 40178 ft | 422 kts | 311° |
| 2026-05-05 08:19 | -35.23315 | 161.92203 | 40176 ft | 422 kts | 311° |
| 2026-05-05 08:19 | -35.19035 | 161.87295 | 40176 ft | 421 kts | 311° |
| 2026-05-05 08:20 | -35.14758 | 161.82399 | 40175 ft | 421 kts | 311° |
| 2026-05-05 08:20 | -35.10481 | 161.77509 | 40175 ft | 421 kts | 311° |
| 2026-05-05 08:21 | -35.06208 | 161.72629 | 40172 ft | 421 kts | 311° |
| 2026-05-05 08:21 | -35.01933 | 161.67756 | 40173 ft | 420 kts | 311° |
| 2026-05-05 08:22 | -34.97656 | 161.62889 | 40169 ft | 420 kts | 311° |
| 2026-05-05 08:22 | -34.93382 | 161.58031 | 40169 ft | 420 kts | 311° |
| 2026-05-05 08:23 | -34.89101 | 161.53174 | 40168 ft | 420 kts | 311° |
| 2026-05-05 08:23 | -34.84822 | 161.48326 | 40168 ft | 420 kts | 311° |
| 2026-05-05 08:24 | -34.80573 | 161.43518 | 40169 ft | 420 kts | 311° |
| 2026-05-05 08:24 | -34.76296 | 161.38686 | 40167 ft | 419 kts | 311° |
| 2026-05-05 08:25 | -34.72018 | 161.33860 | 40162 ft | 419 kts | 311° |
| 2026-05-05 08:25 | -34.67741 | 161.29042 | 40162 ft | 419 kts | 311° |
| 2026-05-05 08:26 | -34.63468 | 161.24237 | 40158 ft | 419 kts | 311° |
| 2026-05-05 08:26 | -34.59189 | 161.19431 | 40157 ft | 418 kts | 311° |
| 2026-05-05 08:27 | -34.54909 | 161.14632 | 40161 ft | 418 kts | 311° |
| 2026-05-05 08:27 | -34.50631 | 161.09841 | 40159 ft | 418 kts | 311° |
| 2026-05-05 08:28 | -34.46366 | 161.05073 | 40157 ft | 418 kts | 311° |
| 2026-05-05 08:28 | -34.42113 | 161.00324 | 40152 ft | 417 kts | 311° |
| 2026-05-05 08:29 | -34.37842 | 160.95562 | 40151 ft | 417 kts | 311° |
| 2026-05-05 08:30 | -34.31438 | 160.88436 | 40154 ft | 417 kts | 311° |
| 2026-05-05 08:30 | -34.27169 | 160.83694 | 40150 ft | 416 kts | 311° |
| 2026-05-05 08:31 | -34.22905 | 160.78964 | 40153 ft | 416 kts | 311° |
| 2026-05-05 08:31 | -34.18668 | 160.74271 | 40149 ft | 416 kts | 311° |
| 2026-05-05 08:32 | -34.14403 | 160.69553 | 40150 ft | 415 kts | 311° |
| 2026-05-05 08:32 | -34.10142 | 160.64846 | 40151 ft | 415 kts | 311° |
| 2026-05-05 08:33 | -34.05884 | 160.60150 | 40144 ft | 414 kts | 311° |
| 2026-05-05 08:33 | -34.01629 | 160.55464 | 40138 ft | 414 kts | 311° |
| 2026-05-05 08:34 | -33.97373 | 160.50783 | 40140 ft | 413 kts | 311° |
| 2026-05-05 08:34 | -33.93123 | 160.46116 | 40144 ft | 413 kts | 311° |
| 2026-05-05 08:35 | -33.88880 | 160.41463 | 40142 ft | 412 kts | 311° |
| 2026-05-05 08:35 | -33.84639 | 160.36818 | 40145 ft | 412 kts | 311° |
| 2026-05-05 08:36 | -33.80403 | 160.32185 | 40140 ft | 411 kts | 311° |
| 2026-05-05 08:36 | -33.76171 | 160.27563 | 40149 ft | 411 kts | 311° |
| 2026-05-05 08:37 | -33.71967 | 160.22978 | 40139 ft | 410 kts | 311° |
| 2026-05-05 08:37 | -33.67743 | 160.18378 | 40142 ft | 410 kts | 311° |
| 2026-05-05 08:38 | -33.63517 | 160.13781 | 40140 ft | 410 kts | 311° |
| 2026-05-05 08:38 | -33.59288 | 160.09188 | 40131 ft | 409 kts | 311° |
| 2026-05-05 08:39 | -33.55067 | 160.04609 | 40139 ft | 409 kts | 311° |
| 2026-05-05 08:39 | -33.50860 | 160.00053 | 40137 ft | 409 kts | 311° |
| 2026-05-05 08:40 | -33.46628 | 159.95474 | 40138 ft | 408 kts | 311° |
| 2026-05-05 08:40 | -33.42410 | 159.90918 | 40132 ft | 408 kts | 311° |
| 2026-05-05 08:41 | -33.38194 | 159.86367 | 40130 ft | 408 kts | 311° |
| 2026-05-05 08:41 | -33.33980 | 159.81828 | 40136 ft | 408 kts | 311° |
| 2026-05-05 08:42 | -33.29759 | 159.77290 | 40135 ft | 407 kts | 311° |
| 2026-05-05 08:42 | -33.25553 | 159.72773 | 40133 ft | 407 kts | 311° |
| 2026-05-05 08:43 | -33.21351 | 159.68264 | 40133 ft | 407 kts | 311° |
| 2026-05-05 08:43 | -33.17135 | 159.63745 | 40127 ft | 407 kts | 311° |
| 2026-05-05 08:44 | -33.12927 | 159.59241 | 40131 ft | 406 kts | 311° |
| 2026-05-05 08:44 | -33.08742 | 159.54769 | 40127 ft | 406 kts | 311° |
| 2026-05-05 08:45 | -33.04534 | 159.50277 | 40126 ft | 406 kts | 311° |
| 2026-05-05 08:45 | -33.00333 | 159.45798 | 40128 ft | 405 kts | 311° |
| 2026-05-05 08:46 | -32.96139 | 159.41334 | 40128 ft | 405 kts | 311° |
| 2026-05-05 08:46 | -32.91944 | 159.36874 | 40124 ft | 404 kts | 311° |
| 2026-05-05 08:47 | -32.87751 | 159.32421 | 40126 ft | 404 kts | 311° |
| 2026-05-05 08:47 | -32.83568 | 159.27985 | 40125 ft | 404 kts | 311° |
| 2026-05-05 08:48 | -32.79374 | 159.23544 | 40126 ft | 403 kts | 311° |
| 2026-05-05 08:48 | -32.75173 | 159.19101 | 40133 ft | 403 kts | 311° |
| 2026-05-05 08:49 | -32.70992 | 159.14686 | 40130 ft | 402 kts | 311° |
| 2026-05-05 08:49 | -32.66832 | 159.10297 | 40124 ft | 402 kts | 311° |
| 2026-05-05 08:50 | -32.62656 | 159.05897 | 40120 ft | 401 kts | 311° |
| 2026-05-05 08:50 | -32.58481 | 159.01505 | 40124 ft | 401 kts | 311° |
| 2026-05-05 08:51 | -32.54312 | 158.97125 | 40118 ft | 400 kts | 311° |
| 2026-05-05 08:51 | -32.50148 | 158.92755 | 40120 ft | 399 kts | 311° |
| 2026-05-05 08:52 | -32.45982 | 158.88389 | 40118 ft | 399 kts | 311° |
| 2026-05-05 08:52 | -32.41854 | 158.84069 | 40121 ft | 398 kts | 311° |
| 2026-05-05 08:53 | -32.37703 | 158.79728 | 40119 ft | 398 kts | 311° |
| 2026-05-05 08:53 | -32.33551 | 158.75394 | 40120 ft | 398 kts | 311° |
| 2026-05-05 08:54 | -32.29407 | 158.71073 | 40120 ft | 397 kts | 311° |
| 2026-05-05 08:54 | -32.25257 | 158.66751 | 40121 ft | 397 kts | 311° |
| 2026-05-05 08:55 | -32.21112 | 158.62440 | 40117 ft | 397 kts | 311° |
| 2026-05-05 08:55 | -32.16969 | 158.58136 | 40119 ft | 397 kts | 311° |
| 2026-05-05 08:56 | -32.12821 | 158.53832 | 40121 ft | 396 kts | 311° |
| 2026-05-05 08:56 | -32.08696 | 158.49559 | 40123 ft | 396 kts | 311° |
| 2026-05-05 08:57 | -32.04546 | 158.45264 | 40121 ft | 396 kts | 311° |
| 2026-05-05 08:57 | -32.00409 | 158.40988 | 40117 ft | 396 kts | 311° |
| 2026-05-05 08:58 | -31.96264 | 158.36709 | 40117 ft | 396 kts | 311° |
| 2026-05-05 08:58 | -31.92120 | 158.32437 | 40122 ft | 395 kts | 311° |
| 2026-05-05 08:59 | -31.88001 | 158.28196 | 40121 ft | 395 kts | 311° |
| 2026-05-05 08:59 | -31.83847 | 158.23924 | 40122 ft | 395 kts | 311° |
| 2026-05-05 09:00 | -31.79717 | 158.19682 | 40122 ft | 395 kts | 311° |
| 2026-05-05 09:00 | -31.75587 | 158.15445 | 40121 ft | 394 kts | 311° |
| 2026-05-05 09:01 | -31.71470 | 158.11226 | 40121 ft | 394 kts | 312° |
| 2026-05-05 09:01 | -31.67343 | 158.07003 | 40122 ft | 394 kts | 312° |
| 2026-05-05 09:02 | -31.63210 | 158.02779 | 40120 ft | 394 kts | 312° |
| 2026-05-05 09:02 | -31.59071 | 157.98553 | 40119 ft | 394 kts | 312° |
| 2026-05-05 09:03 | -31.54931 | 157.94333 | 40121 ft | 393 kts | 312° |
| 2026-05-05 09:03 | -31.50812 | 157.90137 | 40123 ft | 393 kts | 312° |
| 2026-05-05 09:04 | -31.46688 | 157.85943 | 40123 ft | 394 kts | 312° |
| 2026-05-05 09:04 | -31.42555 | 157.81744 | 40121 ft | 394 kts | 312° |
| 2026-05-05 09:05 | -31.38419 | 157.77547 | 40122 ft | 394 kts | 312° |
| 2026-05-05 09:05 | -31.34285 | 157.73357 | 40123 ft | 394 kts | 312° |
| 2026-05-05 09:06 | -31.30129 | 157.69150 | 40124 ft | 394 kts | 312° |
| 2026-05-05 09:06 | -31.26007 | 157.64983 | 40118 ft | 394 kts | 312° |
| 2026-05-05 09:07 | -31.21840 | 157.60775 | 40123 ft | 394 kts | 312° |
| 2026-05-05 09:07 | -31.17708 | 157.56607 | 40125 ft | 394 kts | 312° |
| 2026-05-05 09:08 | -31.13546 | 157.52414 | 40119 ft | 394 kts | 312° |
| 2026-05-05 09:08 | -31.09423 | 157.48265 | 40125 ft | 394 kts | 312° |
| 2026-05-05 09:09 | -31.05266 | 157.44085 | 40119 ft | 394 kts | 312° |
| 2026-05-05 09:09 | -31.01117 | 157.39920 | 40125 ft | 394 kts | 312° |
| 2026-05-05 09:10 | -30.97653 | 157.36452 | 40118 ft | 394 kts | 313° |
| 2026-05-05 09:10 | -30.92808 | 157.31610 | 40122 ft | 394 kts | 313° |
| 2026-05-05 09:11 | -30.89341 | 157.28147 | 40120 ft | 394 kts | 313° |
| 2026-05-05 09:11 | -30.85175 | 157.23989 | 40120 ft | 394 kts | 313° |
| 2026-05-05 09:12 | -30.81025 | 157.19853 | 40122 ft | 394 kts | 313° |
| 2026-05-05 09:12 | -30.76865 | 157.15711 | 40108 ft | 394 kts | 313° |
| 2026-05-05 09:13 | -30.72692 | 157.11561 | 40122 ft | 394 kts | 313° |
| 2026-05-05 09:13 | -30.68539 | 157.07435 | 40119 ft | 393 kts | 313° |
| 2026-05-05 09:14 | -30.64368 | 157.03297 | 40113 ft | 393 kts | 313° |
| 2026-05-05 09:14 | -30.60220 | 156.99186 | 40117 ft | 393 kts | 313° |
| 2026-05-05 09:15 | -30.56069 | 156.95077 | 40118 ft | 393 kts | 313° |
| 2026-05-05 09:15 | -30.51909 | 156.90964 | 40117 ft | 393 kts | 313° |
| 2026-05-05 09:16 | -30.47759 | 156.86865 | 40116 ft | 393 kts | 313° |
| 2026-05-05 09:16 | -30.43613 | 156.82776 | 40116 ft | 393 kts | 313° |
| 2026-05-05 09:17 | -30.39437 | 156.78662 | 40116 ft | 392 kts | 313° |
| 2026-05-05 09:17 | -30.35287 | 156.74577 | 40117 ft | 392 kts | 313° |
| 2026-05-05 09:18 | -30.31120 | 156.70481 | 40116 ft | 392 kts | 313° |
| 2026-05-05 09:18 | -30.26955 | 156.66392 | 40118 ft | 393 kts | 313° |
| 2026-05-05 09:19 | -30.22807 | 156.62323 | 40117 ft | 393 kts | 313° |
| 2026-05-05 09:19 | -30.18645 | 156.58246 | 40117 ft | 393 kts | 313° |
| 2026-05-05 09:20 | -30.14480 | 156.54171 | 40117 ft | 393 kts | 313° |
| 2026-05-05 09:20 | -30.10284 | 156.50070 | 40119 ft | 393 kts | 314° |
| 2026-05-05 09:21 | -30.06109 | 156.45994 | 40116 ft | 393 kts | 314° |
| 2026-05-05 09:21 | -30.01947 | 156.41935 | 40116 ft | 393 kts | 314° |
| 2026-05-05 09:22 | -29.97783 | 156.37878 | 40118 ft | 393 kts | 314° |
| 2026-05-05 09:22 | -29.93601 | 156.33810 | 40115 ft | 393 kts | 314° |
| 2026-05-05 09:23 | -29.89420 | 156.29746 | 40117 ft | 393 kts | 314° |
| 2026-05-05 09:23 | -29.85242 | 156.25688 | 40117 ft | 393 kts | 314° |
| 2026-05-05 09:24 | -29.81057 | 156.21629 | 40115 ft | 393 kts | 314° |
| 2026-05-05 09:24 | -29.76873 | 156.17576 | 40116 ft | 393 kts | 314° |
| 2026-05-05 09:25 | -29.72719 | 156.13552 | 40115 ft | 392 kts | 314° |
| 2026-05-05 09:25 | -29.68539 | 156.09506 | 40117 ft | 392 kts | 314° |
| 2026-05-05 09:26 | -29.64362 | 156.05467 | 40114 ft | 392 kts | 314° |
| 2026-05-05 09:26 | -29.60187 | 156.01434 | 40116 ft | 392 kts | 314° |
| 2026-05-05 09:27 | -29.56015 | 155.97409 | 40114 ft | 392 kts | 314° |
| 2026-05-05 09:27 | -29.51865 | 155.93409 | 40112 ft | 392 kts | 314° |
| 2026-05-05 09:28 | -29.47685 | 155.89385 | 40112 ft | 392 kts | 314° |
| 2026-05-05 09:28 | -29.43499 | 155.85359 | 40114 ft | 392 kts | 314° |
| 2026-05-05 09:29 | -29.39297 | 155.81322 | 40113 ft | 393 kts | 314° |
| 2026-05-05 09:29 | -29.35123 | 155.77318 | 40118 ft | 393 kts | 314° |
| 2026-05-05 09:30 | -29.30932 | 155.73301 | 40118 ft | 393 kts | 314° |
| 2026-05-05 09:30 | -29.26749 | 155.69296 | 40114 ft | 393 kts | 314° |
| 2026-05-05 09:31 | -29.22552 | 155.65283 | 40114 ft | 393 kts | 314° |
| 2026-05-05 09:31 | -29.18338 | 155.61256 | 40114 ft | 393 kts | 314° |
| 2026-05-05 09:32 | -29.14151 | 155.57261 | 40114 ft | 393 kts | 314° |
| 2026-05-05 09:32 | -29.09952 | 155.53258 | 40117 ft | 394 kts | 315° |
| 2026-05-05 09:33 | -29.05740 | 155.49247 | 40115 ft | 394 kts | 315° |
| 2026-05-05 09:33 | -29.01511 | 155.45224 | 40114 ft | 394 kts | 315° |
| 2026-05-05 09:34 | -28.97314 | 155.41236 | 40113 ft | 393 kts | 315° |
| 2026-05-05 09:34 | -28.93119 | 155.37254 | 40115 ft | 393 kts | 315° |
| 2026-05-05 09:35 | -28.88888 | 155.33248 | 40112 ft | 393 kts | 315° |
| 2026-05-05 09:35 | -28.82570 | 155.27282 | 40114 ft | 393 kts | 315° |
| 2026-05-05 09:36 | -28.78371 | 155.23322 | 40112 ft | 393 kts | 315° |
| 2026-05-05 09:36 | -28.74161 | 155.19353 | 40112 ft | 393 kts | 315° |
| 2026-05-05 09:37 | -28.69956 | 155.15394 | 40114 ft | 393 kts | 315° |
| 2026-05-05 09:37 | -28.65722 | 155.11411 | 40115 ft | 393 kts | 315° |
| 2026-05-05 09:38 | -28.61517 | 155.07460 | 40109 ft | 393 kts | 315° |
| 2026-05-05 09:38 | -28.57313 | 155.03514 | 40114 ft | 393 kts | 315° |
| 2026-05-05 09:39 | -28.53787 | 155.00207 | 40131 ft | 393 kts | 315° |
| 2026-05-05 09:39 | -28.49855 | 154.96524 | 40110 ft | 393 kts | 315° |
| 2026-05-05 09:40 | -28.45681 | 154.92622 | 40093 ft | 381 kts | 315° |
| 2026-05-05 09:40 | -28.43682 | 154.90759 | 40073 ft | 369 kts | 315° |
| 2026-05-05 09:40 | -28.41710 | 154.88921 | 39811 ft | 361 kts | 315° |
| 2026-05-05 09:41 | -28.39805 | 154.87143 | 39454 ft | 356 kts | 315° |
| 2026-05-05 09:41 | -28.37900 | 154.85362 | 39022 ft | 352 kts | 315° |
| 2026-05-05 09:41 | -28.36009 | 154.83594 | 38551 ft | 350 kts | 315° |
| 2026-05-05 09:41 | -28.34127 | 154.81836 | 38030 ft | 347 kts | 315° |
| 2026-05-05 09:42 | -28.32284 | 154.80116 | 37554 ft | 344 kts | 315° |
| 2026-05-05 09:42 | -28.30443 | 154.78399 | 37089 ft | 340 kts | 315° |
| 2026-05-05 09:42 | -28.28621 | 154.76701 | 36647 ft | 337 kts | 316° |
| 2026-05-05 09:42 | -28.26834 | 154.75036 | 36208 ft | 334 kts | 316° |
| 2026-05-05 09:43 | -28.25040 | 154.73365 | 35767 ft | 332 kts | 316° |
| 2026-05-05 09:43 | -28.23260 | 154.71708 | 35324 ft | 330 kts | 316° |
| 2026-05-05 09:43 | -28.21491 | 154.70063 | 34872 ft | 329 kts | 317° |
| 2026-05-05 09:43 | -28.19714 | 154.68410 | 34428 ft | 327 kts | 317° |
| 2026-05-05 09:44 | -28.17949 | 154.66770 | 33970 ft | 327 kts | 317° |
| 2026-05-05 09:44 | -28.16210 | 154.65154 | 33490 ft | 325 kts | 317° |
| 2026-05-05 09:44 | -28.14455 | 154.63525 | 33026 ft | 323 kts | 317° |
| 2026-05-05 09:44 | -28.12718 | 154.61915 | 32587 ft | 322 kts | 317° |
| 2026-05-05 09:45 | -28.10998 | 154.60320 | 32154 ft | 320 kts | 317° |
| 2026-05-05 09:45 | -28.09277 | 154.58725 | 31723 ft | 318 kts | 317° |
| 2026-05-05 09:45 | -28.07586 | 154.57157 | 31302 ft | 316 kts | 317° |
| 2026-05-05 09:45 | -28.05875 | 154.55573 | 30875 ft | 315 kts | 317° |
| 2026-05-05 09:46 | -28.04173 | 154.53997 | 30466 ft | 314 kts | 317° |
| 2026-05-05 09:46 | -28.02505 | 154.52453 | 30012 ft | 313 kts | 317° |
| 2026-05-05 09:46 | -28.00816 | 154.50890 | 29541 ft | 312 kts | 317° |
| 2026-05-05 09:46 | -27.99133 | 154.49334 | 29090 ft | 310 kts | 317° |
| 2026-05-05 09:47 | -27.97485 | 154.47811 | 28668 ft | 308 kts | 317° |
| 2026-05-05 09:47 | -27.95824 | 154.46276 | 28266 ft | 315 kts | 317° |
| 2026-05-05 09:47 | -27.94029 | 154.44607 | 27850 ft | 353 kts | 317° |
| 2026-05-05 09:47 | -27.92032 | 154.42750 | 27356 ft | 381 kts | 317° |
| 2026-05-05 09:48 | -27.90050 | 154.40928 | 26816 ft | 353 kts | 317° |
| 2026-05-05 09:48 | -27.88207 | 154.39243 | 26351 ft | 328 kts | 317° |
| 2026-05-05 09:48 | -27.86492 | 154.37673 | 25948 ft | 310 kts | 317° |
| 2026-05-05 09:48 | -27.84842 | 154.36154 | 25582 ft | 308 kts | 316° |
| 2026-05-05 09:49 | -27.83181 | 154.34622 | 25192 ft | 307 kts | 316° |
| 2026-05-05 09:49 | -27.81518 | 154.33088 | 24798 ft | 307 kts | 316° |
| 2026-05-05 09:49 | -27.79864 | 154.31564 | 24394 ft | 307 kts | 316° |
| 2026-05-05 09:49 | -27.78223 | 154.30053 | 23998 ft | 307 kts | 316° |
| 2026-05-05 09:50 | -27.76560 | 154.28522 | 23576 ft | 307 kts | 316° |
| 2026-05-05 09:50 | -27.74900 | 154.26995 | 23133 ft | 307 kts | 316° |
| 2026-05-05 09:50 | -27.73246 | 154.25474 | 22708 ft | 305 kts | 316° |
| 2026-05-05 09:50 | -27.71597 | 154.23960 | 22309 ft | 303 kts | 316° |
| 2026-05-05 09:51 | -27.69990 | 154.22484 | 21913 ft | 301 kts | 316° |
| 2026-05-05 09:51 | -27.68368 | 154.20995 | 21536 ft | 299 kts | 317° |
| 2026-05-05 09:51 | -27.66752 | 154.19513 | 21138 ft | 297 kts | 317° |
| 2026-05-05 09:51 | -27.65143 | 154.18037 | 20760 ft | 295 kts | 317° |
| 2026-05-05 09:52 | -27.63567 | 154.16592 | 20379 ft | 293 kts | 317° |
| 2026-05-05 09:52 | -27.61982 | 154.15139 | 19999 ft | 291 kts | 317° |
| 2026-05-05 09:52 | -27.60412 | 154.13700 | 19615 ft | 290 kts | 317° |
| 2026-05-05 09:52 | -27.58853 | 154.12271 | 19249 ft | 288 kts | 318° |
| 2026-05-05 09:53 | -27.57314 | 154.10862 | 18871 ft | 287 kts | 318° |
| 2026-05-05 09:53 | -27.55761 | 154.09442 | 18498 ft | 285 kts | 318° |
| 2026-05-05 09:53 | -27.54215 | 154.08028 | 18085 ft | 284 kts | 319° |
| 2026-05-05 09:53 | -27.52857 | 154.06508 | 17688 ft | 276 kts | 304° |
| 2026-05-05 09:54 | -27.51899 | 154.04639 | 17334 ft | 273 kts | 295° |
| 2026-05-05 09:54 | -27.51325 | 154.02588 | 16972 ft | 275 kts | 284° |
| 2026-05-05 09:54 | -27.50972 | 154.00471 | 16617 ft | 282 kts | 282° |
| 2026-05-05 09:54 | -27.50638 | 153.98247 | 16249 ft | 292 kts | 282° |
| 2026-05-05 09:55 | -27.50287 | 153.95967 | 15859 ft | 296 kts | 282° |
| 2026-05-05 09:55 | -27.49917 | 153.93672 | 15467 ft | 296 kts | 282° |
| 2026-05-05 09:55 | -27.49543 | 153.91418 | 15086 ft | 294 kts | 283° |
| 2026-05-05 09:55 | -27.49164 | 153.89164 | 14713 ft | 292 kts | 283° |
| 2026-05-05 09:56 | -27.48791 | 153.86945 | 14341 ft | 290 kts | 282° |
| 2026-05-05 09:56 | -27.48429 | 153.84702 | 13965 ft | 288 kts | 282° |
| 2026-05-05 09:56 | -27.48073 | 153.82478 | 13545 ft | 287 kts | 282° |
| 2026-05-05 09:56 | -27.47724 | 153.80299 | 13168 ft | 284 kts | 282° |
| 2026-05-05 09:57 | -27.47371 | 153.78112 | 12788 ft | 282 kts | 281° |
| 2026-05-05 09:57 | -27.47021 | 153.75942 | 12426 ft | 279 kts | 281° |
| 2026-05-05 09:57 | -27.46758 | 153.73826 | 12086 ft | 272 kts | 270° |
| 2026-05-05 09:57 | -27.47097 | 153.71725 | 11903 ft | 276 kts | 256° |
| 2026-05-05 09:58 | -27.47608 | 153.69589 | 11695 ft | 292 kts | 256° |
| 2026-05-05 09:58 | -27.48138 | 153.67377 | 11440 ft | 292 kts | 256° |
| 2026-05-05 09:58 | -27.48666 | 153.65164 | 11203 ft | 293 kts | 255° |
| 2026-05-05 09:58 | -27.49192 | 153.62942 | 10966 ft | 294 kts | 255° |
| 2026-05-05 09:59 | -27.49715 | 153.60717 | 10729 ft | 294 kts | 255° |
| 2026-05-05 09:59 | -27.50237 | 153.58490 | 10479 ft | 294 kts | 254° |
| 2026-05-05 09:59 | -27.50759 | 153.56263 | 10155 ft | 290 kts | 254° |
| 2026-05-05 09:59 | -27.51094 | 153.54826 | 9989 ft | 281 kts | 254° |
| 2026-05-05 10:00 | -27.51750 | 153.52018 | 9686 ft | 283 kts | 254° |
| 2026-05-05 10:00 | -27.52089 | 153.50561 | 9530 ft | 285 kts | 254° |
| 2026-05-05 10:00 | -27.52752 | 153.47713 | 9228 ft | 282 kts | 254° |
| 2026-05-05 10:00 | -27.53085 | 153.46279 | 9057 ft | 278 kts | 253° |
| 2026-05-05 10:01 | -27.53674 | 153.44240 | 8814 ft | 272 kts | 245° |
| 2026-05-05 10:01 | -27.54480 | 153.42319 | 8567 ft | 272 kts | 242° |
| 2026-05-05 10:01 | -27.55320 | 153.40435 | 8331 ft | 272 kts | 242° |
| 2026-05-05 10:01 | -27.56162 | 153.38524 | 8085 ft | 273 kts | 242° |
| 2026-05-05 10:02 | -27.56992 | 153.36598 | 7843 ft | 273 kts | 242° |
| 2026-05-05 10:02 | -27.57813 | 153.34663 | 7590 ft | 274 kts | 243° |
| 2026-05-05 10:02 | -27.58629 | 153.32727 | 7335 ft | 273 kts | 243° |
| 2026-05-05 10:02 | -27.59433 | 153.30812 | 7085 ft | 267 kts | 242° |
| 2026-05-05 10:03 | -27.60131 | 153.28895 | 6831 ft | 265 kts | 250° |
| 2026-05-05 10:03 | -27.60631 | 153.26892 | 6594 ft | 266 kts | 252° |
| 2026-05-05 10:03 | -27.61112 | 153.24871 | 6333 ft | 268 kts | 252° |
| 2026-05-05 10:03 | -27.61609 | 153.22841 | 6063 ft | 269 kts | 252° |
| 2026-05-05 10:04 | -27.62155 | 153.20831 | 5796 ft | 268 kts | 246° |
| 2026-05-05 10:04 | -27.62892 | 153.18910 | 5539 ft | 264 kts | 243° |
| 2026-05-05 10:04 | -27.63660 | 153.17054 | 5279 ft | 258 kts | 243° |
| 2026-05-05 10:04 | -27.64409 | 153.15222 | 5037 ft | 258 kts | 243° |
| 2026-05-05 10:05 | -27.65152 | 153.13371 | 4799 ft | 259 kts | 243° |
| 2026-05-05 10:05 | -27.65891 | 153.11513 | 4530 ft | 260 kts | 244° |
| 2026-05-05 10:05 | -27.66626 | 153.09654 | 4275 ft | 260 kts | 244° |
| 2026-05-05 10:05 | -27.67291 | 153.07775 | 4014 ft | 254 kts | 255° |
| 2026-05-05 10:06 | -27.67462 | 153.05798 | 3783 ft | 254 kts | 266° |
| 2026-05-05 10:06 | -27.67449 | 153.03832 | 3525 ft | 252 kts | 275° |
| 2026-05-05 10:06 | -27.66831 | 153.01992 | 3299 ft | 254 kts | 301° |
| 2026-05-05 10:06 | -27.65783 | 153.00367 | 3082 ft | 258 kts | 316° |
| 2026-05-05 10:07 | -27.64227 | 152.99383 | 3042 ft | 258 kts | 347° |
| 2026-05-05 10:07 | -27.62515 | 152.99408 | 2985 ft | 240 kts | 16° |
| 2026-05-05 10:07 | -27.61014 | 153.00012 | 2974 ft | 219 kts | 23° |
| 2026-05-05 10:07 | -27.59670 | 153.00689 | 2969 ft | 206 kts | 27° |
| 2026-05-05 10:08 | -27.58455 | 153.01370 | 2988 ft | 205 kts | 28° |
| 2026-05-05 10:08 | -27.57178 | 153.02103 | 2994 ft | 206 kts | 28° |
| 2026-05-05 10:08 | -27.55895 | 153.02842 | 3001 ft | 207 kts | 28° |
| 2026-05-05 10:08 | -27.54663 | 153.03553 | 2973 ft | 195 kts | 28° |
| 2026-05-05 10:09 | -27.53497 | 153.04224 | 2874 ft | 187 kts | 28° |
| 2026-05-05 10:09 | -27.52357 | 153.04881 | 2649 ft | 178 kts | 28° |
| 2026-05-05 10:09 | -27.51289 | 153.05496 | 2384 ft | 166 kts | 28° |
| 2026-05-05 10:09 | -27.50316 | 153.06055 | 2184 ft | 148 kts | 28° |
| 2026-05-05 10:10 | -27.49421 | 153.06569 | 1995 ft | 140 kts | 28° |
| 2026-05-05 10:10 | -27.48550 | 153.07072 | 1850 ft | 142 kts | 28° |
| 2026-05-05 10:10 | -27.47663 | 153.07582 | 1648 ft | 143 kts | 28° |
| 2026-05-05 10:10 | -27.46792 | 153.08082 | 1442 ft | 141 kts | 28° |
| 2026-05-05 10:11 | -27.45922 | 153.08583 | 1268 ft | 140 kts | 28° |
| 2026-05-05 10:11 | -27.45052 | 153.09083 | 1078 ft | 140 kts | 28° |
| 2026-05-05 10:11 | -27.44181 | 153.09581 | 898 ft | 140 kts | 28° |
| 2026-05-05 10:11 | -27.43315 | 153.10080 | 715 ft | 140 kts | 28° |
| 2026-05-05 10:12 | -27.42448 | 153.10578 | 534 ft | 140 kts | 28° |
| 2026-05-05 10:12 | -27.41580 | 153.11081 | 335 ft | 138 kts | 28° |
| 2026-05-05 10:12 | -27.40726 | 153.11565 | 156 ft | 137 kts | 28° |
| 2026-05-05 10:12 | -27.39886 | 153.12048 | 27 ft | 132 kts | 28° |
| 2026-05-05 10:13 | -27.39217 | 153.12429 | 25 ft | 75 kts | 27° |
| 2026-05-05 10:13 | -27.38955 | 153.12578 | 26 ft | 14 kts | 25° |
| 2026-05-05 10:13 | -27.38781 | 153.12646 | 23 ft | 30 kts | 12° |
| 2026-05-05 10:13 | -27.38634 | 153.12657 | 26 ft | 0 kts | 359° |
| 2026-05-05 10:14 | -27.38536 | 153.12655 | 26 ft | 19 kts | 358° |
| 2026-05-05 10:14 | -27.38508 | 153.12621 | 26 ft | 9 kts | 241° |
| 2026-05-05 10:14 | -27.38629 | 153.12539 | 27 ft | 25 kts | 207° |
| 2026-05-05 10:14 | -27.38788 | 153.12448 | 24 ft | 26 kts | 207° |
| 2026-05-05 10:15 | -27.38947 | 153.12358 | 26 ft | 26 kts | 208° |
| 2026-05-05 10:15 | -27.39105 | 153.12267 | 26 ft | 26 kts | 207° |
| 2026-05-05 10:15 | -27.39265 | 153.12177 | 23 ft | 26 kts | 207° |
| 2026-05-05 10:15 | -27.39421 | 153.12087 | 25 ft | 26 kts | 207° |
| 2026-05-05 10:16 | -27.39580 | 153.11997 | 24 ft | 26 kts | 204° |
| 2026-05-05 10:16 | -27.39740 | 153.11907 | 26 ft | 26 kts | 207° |
| 2026-05-05 10:16 | -27.39898 | 153.11813 | 25 ft | 26 kts | 208° |
| 2026-05-05 10:16 | -27.40057 | 153.11722 | 24 ft | 26 kts | 206° |
| 2026-05-05 10:17 | -27.40198 | 153.11643 | 23 ft | 19 kts | 206° |
| 2026-05-05 10:17 | -27.40257 | 153.11554 | 23 ft | 15 kts | 279° |
| 2026-05-05 10:17 | -27.40213 | 153.11442 | 23 ft | 16 kts | 297° |
| 2026-05-05 10:17 | -27.40207 | 153.11333 | 25 ft | 12 kts | 231° |
| 2026-05-05 10:18 | -27.40247 | 153.11268 | 26 ft | 7 kts | 275° |
| 2026-05-05 10:18 | -27.40232 | 153.11213 | 24 ft | 0 kts | 294° |